EWG74A EDDL-LOWI
Flight info
| Callsign | EWG74A |
|---|---|
| Flight time | 0h 56m |
| Altitude | 30000 |
| Route | DODEN7Z DODEN Y852 TUSUK DCT ULNOK L607 TEDGO DCT BATUB M738 MADEB MADEB1B |
| Aircraft | A20N/M-SDE2E3FGHIRWXY/LB1 |
Departure
| Time | 2026-05-06 19:06 |
|---|---|
| Airport | Düsseldorf Airport (EDDL) |
Arrival
| Time | 2026-05-06 20:02 |
|---|---|
| Airport | Innsbruck Airport (LOWI) |
| Time | Latitude | Longitude | Altitude | Speed | Heading |
|---|---|---|---|---|---|
| 2026-05-06 18:49 | 51.27729 | 6.75335 | 120 ft | 0 kts | 244° |
| 2026-05-06 18:58 | 51.27729 | 6.75336 | 125 ft | 2 kts | 244° |
| 2026-05-06 18:59 | 51.27737 | 6.75361 | 106 ft | 3 kts | 244° |
| 2026-05-06 18:59 | 51.27745 | 6.75385 | 125 ft | 2 kts | 258° |
| 2026-05-06 18:59 | 51.27742 | 6.75409 | 128 ft | 2 kts | 325° |
| 2026-05-06 18:59 | 51.27736 | 6.75415 | 123 ft | 0 kts | 356° |
| 2026-05-06 19:01 | 51.27733 | 6.75416 | 123 ft | 0 kts | 356° |
| 2026-05-06 19:01 | 51.27735 | 6.75416 | 123 ft | 0 kts | 356° |
| 2026-05-06 19:02 | 51.27739 | 6.75415 | 122 ft | 1 kts | 356° |
| 2026-05-06 19:02 | 51.27744 | 6.75415 | 122 ft | 1 kts | 356° |
| 2026-05-06 19:02 | 51.27764 | 6.75410 | 126 ft | 6 kts | 343° |
| 2026-05-06 19:02 | 51.27767 | 6.75408 | 126 ft | 0 kts | 339° |
| 2026-05-06 19:04 | 51.27771 | 6.75406 | 125 ft | 4 kts | 339° |
| 2026-05-06 19:04 | 51.27834 | 6.75359 | 122 ft | 13 kts | 334° |
| 2026-05-06 19:04 | 51.27876 | 6.75326 | 120 ft | 0 kts | 334° |
| 2026-05-06 19:05 | 51.27918 | 6.75292 | 118 ft | 14 kts | 333° |
| 2026-05-06 19:05 | 51.28009 | 6.75310 | 116 ft | 14 kts | 42° |
| 2026-05-06 19:05 | 51.28038 | 6.75365 | 118 ft | 0 kts | 54° |
| 2026-05-06 19:06 | 51.28067 | 6.75430 | 121 ft | 37 kts | 53° |
| 2026-05-06 19:06 | 51.28402 | 6.76150 | 121 ft | 135 kts | 54° |
| 2026-05-06 19:06 | 51.29123 | 6.77680 | 767 ft | 174 kts | 50° |
| 2026-05-06 19:06 | 51.29852 | 6.79337 | 1752 ft | 190 kts | 53° |
| 2026-05-06 19:07 | 51.30622 | 6.80982 | 3069 ft | 185 kts | 50° |
| 2026-05-06 19:07 | 51.31461 | 6.82692 | 4041 ft | 202 kts | 50° |
| 2026-05-06 19:07 | 51.32339 | 6.84494 | 5024 ft | 212 kts | 50° |
| 2026-05-06 19:07 | 51.33259 | 6.86445 | 5974 ft | 227 kts | 51° |
| 2026-05-06 19:08 | 51.34204 | 6.88522 | 7070 ft | 235 kts | 51° |
| 2026-05-06 19:08 | 51.35130 | 6.90724 | 8155 ft | 248 kts | 60° |
| 2026-05-06 19:08 | 51.35422 | 6.93566 | 9199 ft | 274 kts | 91° |
| 2026-05-06 19:08 | 51.35118 | 6.96644 | 10485 ft | 287 kts | 97° |
| 2026-05-06 19:09 | 51.34718 | 6.99909 | 11441 ft | 309 kts | 98° |
| 2026-05-06 19:09 | 51.34309 | 7.03384 | 12606 ft | 323 kts | 97° |
| 2026-05-06 19:09 | 51.33915 | 7.06937 | 13849 ft | 332 kts | 97° |
| 2026-05-06 19:09 | 51.33521 | 7.10633 | 14965 ft | 340 kts | 98° |
| 2026-05-06 19:10 | 51.33129 | 7.14386 | 16062 ft | 348 kts | 98° |
| 2026-05-06 19:10 | 51.32776 | 7.18246 | 17117 ft | 357 kts | 101° |
| 2026-05-06 19:10 | 51.31796 | 7.21940 | 18163 ft | 363 kts | 126° |
| 2026-05-06 19:10 | 51.29976 | 7.24749 | 19041 ft | 368 kts | 144° |
| 2026-05-06 19:11 | 51.27871 | 7.27157 | 19648 ft | 383 kts | 145° |
| 2026-05-06 19:11 | 51.25688 | 7.29845 | 19873 ft | 408 kts | 142° |
| 2026-05-06 19:11 | 51.23452 | 7.32912 | 19884 ft | 436 kts | 139° |
| 2026-05-06 19:11 | 51.21156 | 7.36285 | 19886 ft | 462 kts | 137° |
| 2026-05-06 19:12 | 51.18789 | 7.39888 | 20021 ft | 465 kts | 137° |
| 2026-05-06 19:12 | 51.16513 | 7.43390 | 19607 ft | 444 kts | 137° |
| 2026-05-06 19:12 | 51.14366 | 7.46674 | 19592 ft | 419 kts | 137° |
| 2026-05-06 19:12 | 51.12336 | 7.49785 | 19797 ft | 389 kts | 137° |
| 2026-05-06 19:13 | 51.10425 | 7.52717 | 20038 ft | 375 kts | 137° |
| 2026-05-06 19:13 | 51.08577 | 7.55586 | 20280 ft | 374 kts | 136° |
| 2026-05-06 19:13 | 51.06725 | 7.58509 | 20533 ft | 375 kts | 136° |
| 2026-05-06 19:13 | 51.04835 | 7.61384 | 20780 ft | 375 kts | 140° |
| 2026-05-06 19:14 | 51.02916 | 7.64227 | 21017 ft | 377 kts | 137° |
| 2026-05-06 19:14 | 51.01055 | 7.67193 | 21037 ft | 377 kts | 136° |
| 2026-05-06 19:14 | 50.99237 | 7.70111 | 20744 ft | 372 kts | 136° |
| 2026-05-06 19:14 | 50.97421 | 7.72954 | 20494 ft | 361 kts | 137° |
| 2026-05-06 19:15 | 50.95547 | 7.75493 | 20229 ft | 348 kts | 148° |
| 2026-05-06 19:15 | 50.93458 | 7.77310 | 19973 ft | 337 kts | 155° |
| 2026-05-06 19:15 | 50.91447 | 7.79122 | 19868 ft | 324 kts | 149° |
| 2026-05-06 19:15 | 50.89647 | 7.80993 | 20049 ft | 301 kts | 148° |
| 2026-05-06 19:16 | 50.87981 | 7.82770 | 20315 ft | 276 kts | 148° |
| 2026-05-06 19:16 | 50.86433 | 7.84391 | 20591 ft | 260 kts | 150° |
| 2026-05-06 19:16 | 50.84904 | 7.85904 | 20903 ft | 258 kts | 151° |
| 2026-05-06 19:16 | 50.83381 | 7.87375 | 21204 ft | 258 kts | 151° |
| 2026-05-06 19:17 | 50.81840 | 7.88858 | 21492 ft | 260 kts | 151° |
| 2026-05-06 19:17 | 50.80288 | 7.90351 | 21756 ft | 261 kts | 151° |
| 2026-05-06 19:17 | 50.78733 | 7.91845 | 22023 ft | 262 kts | 151° |
| 2026-05-06 19:17 | 50.77184 | 7.93333 | 22289 ft | 263 kts | 151° |
| 2026-05-06 19:18 | 50.75611 | 7.94838 | 22554 ft | 264 kts | 153° |
| 2026-05-06 19:18 | 50.73981 | 7.96211 | 22831 ft | 265 kts | 156° |
| 2026-05-06 19:18 | 50.72887 | 7.97075 | 23014 ft | 265 kts | 157° |
| 2026-05-06 19:18 | 50.71162 | 7.98459 | 23306 ft | 266 kts | 156° |
| 2026-05-06 19:19 | 50.69506 | 7.99793 | 23552 ft | 267 kts | 156° |
| 2026-05-06 19:19 | 50.67853 | 8.01139 | 23788 ft | 268 kts | 153° |
| 2026-05-06 19:19 | 50.66303 | 8.02827 | 24027 ft | 271 kts | 145° |
| 2026-05-06 19:19 | 50.64854 | 8.04700 | 24264 ft | 273 kts | 143° |
| 2026-05-06 19:20 | 50.63344 | 8.06580 | 24526 ft | 283 kts | 147° |
| 2026-05-06 19:20 | 50.61699 | 8.08456 | 24825 ft | 302 kts | 146° |
| 2026-05-06 19:20 | 50.59835 | 8.10152 | 25106 ft | 314 kts | 165° |
| 2026-05-06 19:20 | 50.57667 | 8.10816 | 25405 ft | 327 kts | 176° |
| 2026-05-06 19:21 | 50.55322 | 8.10972 | 25706 ft | 343 kts | 181° |
| 2026-05-06 19:21 | 50.52916 | 8.10960 | 25997 ft | 357 kts | 181° |
| 2026-05-06 19:21 | 50.50371 | 8.10973 | 26277 ft | 372 kts | 180° |
| 2026-05-06 19:21 | 50.47728 | 8.11090 | 26564 ft | 386 kts | 179° |
| 2026-05-06 19:22 | 50.45002 | 8.11319 | 26992 ft | 394 kts | 177° |
| 2026-05-06 19:22 | 50.42277 | 8.11626 | 27556 ft | 398 kts | 176° |
| 2026-05-06 19:22 | 50.39482 | 8.11985 | 28184 ft | 401 kts | 176° |
| 2026-05-06 19:22 | 50.36719 | 8.12358 | 28688 ft | 405 kts | 176° |
| 2026-05-06 19:23 | 50.33900 | 8.12743 | 28842 ft | 405 kts | 175° |
| 2026-05-06 19:23 | 50.28288 | 8.13499 | 28833 ft | 407 kts | 175° |
| 2026-05-06 19:24 | 50.22624 | 8.14243 | 28843 ft | 408 kts | 175° |
| 2026-05-06 19:24 | 50.16975 | 8.14998 | 29426 ft | 411 kts | 173° |
| 2026-05-06 19:24 | 50.14149 | 8.15872 | 29794 ft | 413 kts | 165° |
| 2026-05-06 19:25 | 50.11471 | 8.17500 | 29847 ft | 413 kts | 155° |
| 2026-05-06 19:25 | 50.06657 | 8.21599 | 29843 ft | 416 kts | 150° |
| 2026-05-06 19:26 | 50.01709 | 8.26252 | 29841 ft | 414 kts | 149° |
| 2026-05-06 19:26 | 49.97605 | 8.30132 | 29841 ft | 413 kts | 149° |
| 2026-05-06 19:27 | 49.92834 | 8.34577 | 29841 ft | 413 kts | 150° |
| 2026-05-06 19:27 | 49.87882 | 8.39136 | 29833 ft | 413 kts | 149° |
| 2026-05-06 19:28 | 49.83226 | 8.44412 | 29835 ft | 414 kts | 140° |
| 2026-05-06 19:28 | 49.78976 | 8.50397 | 29838 ft | 415 kts | 137° |
| 2026-05-06 19:29 | 49.74740 | 8.56473 | 29841 ft | 414 kts | 141° |
| 2026-05-06 19:29 | 49.69810 | 8.60966 | 29845 ft | 413 kts | 159° |
| 2026-05-06 19:30 | 49.64248 | 8.63156 | 29854 ft | 414 kts | 168° |
| 2026-05-06 19:30 | 49.58581 | 8.64719 | 29852 ft | 416 kts | 169° |
| 2026-05-06 19:31 | 49.52867 | 8.66208 | 29855 ft | 416 kts | 169° |
| 2026-05-06 19:31 | 49.44458 | 8.69443 | 29851 ft | 415 kts | 158° |
| 2026-05-06 19:32 | 49.39185 | 8.72925 | 29852 ft | 417 kts | 155° |
| 2026-05-06 19:32 | 49.33882 | 8.76648 | 29848 ft | 419 kts | 155° |
| 2026-05-06 19:33 | 49.28594 | 8.80362 | 29844 ft | 419 kts | 155° |
| 2026-05-06 19:33 | 49.23268 | 8.84064 | 29839 ft | 419 kts | 155° |
| 2026-05-06 19:34 | 49.17968 | 8.87722 | 29843 ft | 419 kts | 156° |
| 2026-05-06 19:34 | 49.12677 | 8.91362 | 29835 ft | 414 kts | 156° |
| 2026-05-06 19:35 | 49.07444 | 8.94953 | 29843 ft | 414 kts | 156° |
| 2026-05-06 19:35 | 49.02171 | 8.98564 | 29844 ft | 414 kts | 156° |
| 2026-05-06 19:36 | 48.96930 | 9.02146 | 29849 ft | 414 kts | 156° |
| 2026-05-06 19:36 | 48.91692 | 9.05717 | 29855 ft | 414 kts | 157° |
| 2026-05-06 19:37 | 48.86411 | 9.09309 | 29856 ft | 414 kts | 157° |
| 2026-05-06 19:37 | 48.82017 | 9.12292 | 29856 ft | 414 kts | 157° |
| 2026-05-06 19:38 | 48.75877 | 9.16451 | 29857 ft | 415 kts | 157° |
| 2026-05-06 19:38 | 48.70632 | 9.19996 | 29859 ft | 411 kts | 159° |
| 2026-05-06 19:39 | 48.66284 | 9.22930 | 29855 ft | 408 kts | 160° |
| 2026-05-06 19:39 | 48.61073 | 9.26241 | 29857 ft | 406 kts | 163° |
| 2026-05-06 19:40 | 48.55742 | 9.29080 | 29858 ft | 405 kts | 164° |
| 2026-05-06 19:40 | 48.50386 | 9.31825 | 29874 ft | 405 kts | 165° |
| 2026-05-06 19:41 | 48.45052 | 9.34537 | 29873 ft | 405 kts | 165° |
| 2026-05-06 19:41 | 48.39722 | 9.37250 | 29878 ft | 405 kts | 165° |
| 2026-05-06 19:42 | 48.34368 | 9.39977 | 29885 ft | 405 kts | 165° |
| 2026-05-06 19:42 | 48.29034 | 9.42690 | 29883 ft | 405 kts | 165° |
| 2026-05-06 19:43 | 48.23694 | 9.45400 | 29847 ft | 404 kts | 165° |
| 2026-05-06 19:43 | 48.18419 | 9.48074 | 29885 ft | 398 kts | 166° |
| 2026-05-06 19:44 | 48.13153 | 9.50733 | 29888 ft | 397 kts | 166° |
| 2026-05-06 19:44 | 48.07910 | 9.53372 | 29892 ft | 397 kts | 166° |
| 2026-05-06 19:45 | 48.02758 | 9.56114 | 29894 ft | 402 kts | 160° |
| 2026-05-06 19:45 | 47.97975 | 9.60571 | 29905 ft | 409 kts | 152° |
| 2026-05-06 19:46 | 47.95653 | 9.63022 | 29781 ft | 402 kts | 151° |
| 2026-05-06 19:46 | 47.93428 | 9.65453 | 29533 ft | 389 kts | 150° |
| 2026-05-06 19:46 | 47.91298 | 9.67805 | 29284 ft | 378 kts | 150° |
| 2026-05-06 19:46 | 47.89215 | 9.70101 | 29055 ft | 366 kts | 150° |
| 2026-05-06 19:47 | 47.87193 | 9.72316 | 28820 ft | 355 kts | 151° |
| 2026-05-06 19:47 | 47.85215 | 9.74466 | 28606 ft | 344 kts | 151° |
| 2026-05-06 19:47 | 47.83306 | 9.76522 | 28268 ft | 351 kts | 152° |
| 2026-05-06 19:47 | 47.81212 | 9.78729 | 27762 ft | 383 kts | 151° |
| 2026-05-06 19:48 | 47.78992 | 9.81069 | 27235 ft | 393 kts | 151° |
| 2026-05-06 19:48 | 47.76782 | 9.83428 | 26713 ft | 394 kts | 150° |
| 2026-05-06 19:48 | 47.74571 | 9.85805 | 26215 ft | 391 kts | 150° |
| 2026-05-06 19:48 | 47.72367 | 9.88179 | 25698 ft | 388 kts | 149° |
| 2026-05-06 19:49 | 47.70218 | 9.90491 | 25207 ft | 384 kts | 149° |
| 2026-05-06 19:49 | 47.68047 | 9.92818 | 24708 ft | 381 kts | 149° |
| 2026-05-06 19:49 | 47.65902 | 9.95111 | 24235 ft | 378 kts | 149° |
| 2026-05-06 19:49 | 47.63766 | 9.97389 | 23766 ft | 375 kts | 149° |
| 2026-05-06 19:50 | 47.61674 | 9.99615 | 23258 ft | 372 kts | 148° |
| 2026-05-06 19:50 | 47.59594 | 10.01827 | 22577 ft | 367 kts | 148° |
| 2026-05-06 19:50 | 47.57763 | 10.03773 | 21988 ft | 365 kts | 148° |
| 2026-05-06 19:50 | 47.55722 | 10.05938 | 21333 ft | 364 kts | 148° |
| 2026-05-06 19:51 | 47.53663 | 10.08119 | 20655 ft | 362 kts | 147° |
| 2026-05-06 19:51 | 47.51614 | 10.10288 | 20021 ft | 360 kts | 147° |
| 2026-05-06 19:51 | 47.49581 | 10.12438 | 19410 ft | 358 kts | 147° |
| 2026-05-06 19:51 | 47.47560 | 10.14573 | 18806 ft | 355 kts | 147° |
| 2026-05-06 19:52 | 47.45578 | 10.16666 | 18214 ft | 353 kts | 147° |
| 2026-05-06 19:52 | 47.43559 | 10.18748 | 17541 ft | 350 kts | 149° |
| 2026-05-06 19:52 | 47.41519 | 10.20708 | 16860 ft | 346 kts | 150° |
| 2026-05-06 19:52 | 47.39507 | 10.22557 | 16214 ft | 343 kts | 151° |
| 2026-05-06 19:53 | 47.37472 | 10.24389 | 15572 ft | 340 kts | 152° |
| 2026-05-06 19:53 | 47.35466 | 10.26220 | 15093 ft | 340 kts | 149° |
| 2026-05-06 19:53 | 47.33600 | 10.28377 | 14746 ft | 341 kts | 140° |
| 2026-05-06 19:53 | 47.32116 | 10.31058 | 14458 ft | 345 kts | 126° |
| 2026-05-06 19:54 | 47.30936 | 10.34164 | 14213 ft | 345 kts | 121° |
| 2026-05-06 19:54 | 47.29879 | 10.37321 | 13976 ft | 346 kts | 119° |
| 2026-05-06 19:54 | 47.28847 | 10.40530 | 13903 ft | 347 kts | 119° |
| 2026-05-06 19:54 | 47.27823 | 10.43777 | 13908 ft | 346 kts | 118° |
| 2026-05-06 19:55 | 47.26826 | 10.46957 | 13899 ft | 344 kts | 118° |
| 2026-05-06 19:55 | 47.25825 | 10.50169 | 13867 ft | 344 kts | 117° |
| 2026-05-06 19:55 | 47.25159 | 10.53593 | 13906 ft | 352 kts | 99° |
| 2026-05-06 19:55 | 47.25292 | 10.57165 | 14073 ft | 357 kts | 83° |
| 2026-05-06 19:56 | 47.25715 | 10.60767 | 14144 ft | 357 kts | 83° |
| 2026-05-06 19:56 | 47.26184 | 10.64352 | 14203 ft | 359 kts | 80° |
| 2026-05-06 19:56 | 47.26833 | 10.67926 | 13916 ft | 359 kts | 74° |
| 2026-05-06 19:56 | 47.27686 | 10.71345 | 13498 ft | 358 kts | 70° |
| 2026-05-06 19:57 | 47.28522 | 10.74797 | 13036 ft | 354 kts | 81° |
| 2026-05-06 19:57 | 47.28746 | 10.78369 | 12723 ft | 350 kts | 87° |
| 2026-05-06 19:57 | 47.29072 | 10.81919 | 12281 ft | 348 kts | 83° |
| 2026-05-06 19:57 | 47.29488 | 10.85379 | 11734 ft | 346 kts | 82° |
| 2026-05-06 19:58 | 47.29908 | 10.88862 | 11267 ft | 341 kts | 82° |
| 2026-05-06 19:58 | 47.30248 | 10.91711 | 10901 ft | 338 kts | 82° |
| 2026-05-06 19:58 | 47.30599 | 10.95203 | 10495 ft | 334 kts | 85° |
| 2026-05-06 19:58 | 47.30901 | 10.98603 | 10250 ft | 333 kts | 84° |
| 2026-05-06 19:59 | 47.31105 | 11.01960 | 10037 ft | 322 kts | 90° |
| 2026-05-06 19:59 | 47.30921 | 11.05162 | 9651 ft | 309 kts | 107° |
| 2026-05-06 19:59 | 47.30150 | 11.08061 | 9137 ft | 300 kts | 120° |
| 2026-05-06 19:59 | 47.29215 | 11.10743 | 8652 ft | 293 kts | 120° |
| 2026-05-06 20:00 | 47.28260 | 11.13380 | 8023 ft | 290 kts | 121° |
| 2026-05-06 20:00 | 47.27123 | 11.15792 | 7249 ft | 282 kts | 127° |
| 2026-05-06 20:00 | 47.25984 | 11.18093 | 6572 ft | 273 kts | 126° |
| 2026-05-06 20:00 | 47.25005 | 11.20450 | 4956 ft | 283 kts | 109° |
| 2026-05-06 20:01 | 47.24679 | 11.23326 | 4041 ft | 275 kts | 88° |
| 2026-05-06 20:01 | 47.25163 | 11.25891 | 3743 ft | 247 kts | 70° |
| 2026-05-06 20:01 | 47.25363 | 11.28302 | 3114 ft | 231 kts | 98° |
| 2026-05-06 20:01 | 47.25611 | 11.30539 | 2422 ft | 210 kts | 95° |
| 2026-05-06 20:02 | 47.25838 | 11.32493 | 2099 ft | 176 kts | 80° |
| 2026-05-06 20:02 | 47.26006 | 11.34172 | 1908 ft | 157 kts | 82° |
| 2026-05-06 20:02 | 47.26099 | 11.35102 | 1904 ft | 42 kts | 81° |
| 2026-05-06 20:02 | 47.26087 | 11.35247 | 1905 ft | 9 kts | 153° |
| 2026-05-06 20:03 | 47.26022 | 11.35266 | 1910 ft | 10 kts | 171° |
| 2026-05-06 20:03 | 47.25949 | 11.35283 | 1900 ft | 12 kts | 171° |
| 2026-05-06 20:03 | 47.25885 | 11.35280 | 1908 ft | 11 kts | 179° |
| 2026-05-06 20:03 | 47.25853 | 11.35286 | 1899 ft | 0 kts | 172° |